Darstellungsparameter: Aktuell verwendete Einstellungen:
Skalierung der Graphiken ... ?
xyx+y,   Skalierungsfaktor:      Skalierung: Modus: x, Faktor: 1
Darstellungszeitraum ... ?
Vom - - bis: - -   Zeitraum: 24.05.2022 - 24.05.2022
Min/Max/Avg-Anzeige ... ?
Zeige MMA aktuell
Zeige MMA Monat
Zeige MMA alles
Zeige --A aktuell
Zeige --A Monat
Zeige --A alles
Keine MMA-Anzeige
MMA:
Keine MMA-Graphiken
MMA-Basis: 24.05.2022 - 24.05.2022
Quicknavigation für Darstellung... ?
Tage:      1T, 2T, 3T, 5T -1T -2T -3T -5T +1T +2T +3T +5T
Wochen: 1W, 2W, 3W -1W -2W -3W +1W +2W +3W
Monate: 1M, 3M, 6M -1M -3M -6M +1M +3M +6M
Jahre:    1J, 3J, 5J, 10J -1J -3J -5J -10J +1J +3J +5J +10J
Nutze für die Darstellung ... ?
Originaldaten oder Mittelwerte auf ...
Stundenbasis Tagesbasis Wochenbasis
Monatsbasis Jahresbasis      Datenbasis: Original-Daten
Darstellen als:
Statistik (Auto) Statistik J:M      Darstellung:
Zur Graphik,    zurück zur Übersicht aller Sensoren.
 
Tabellarische Datenbersicht: ?
 
Sensor: Nr:Datum:Temp:Abs-Feuchte:Windchill:Wind:
Aussen-T/F 1 24-05-2022 02:00:00 15.3 C 10.84 g/m*3 15.3 C 3.2 km/h
2 24-05-2022 02:05:00 15.2 C 10.9 g/m*3 15.2 C 1.6 km/h
3 24-05-2022 02:10:00 15 C 10.77 g/m*3 15 C 1.6 km/h
4 24-05-2022 02:15:00 14.8 C 10.77 g/m*3 14.8 C 6.4 km/h
5 24-05-2022 02:20:00 14.7 C 10.7 g/m*3 14.7 C 3.2 km/h
6 24-05-2022 02:25:00 14.6 C 10.76 g/m*3 14.6 C 6.4 km/h
7 24-05-2022 02:30:00 14.6 C 10.76 g/m*3 14.6 C 6.4 km/h
8 24-05-2022 02:35:00 14.6 C 10.76 g/m*3 14.6 C 3.2 km/h
9 24-05-2022 02:40:00 14.4 C 10.63 g/m*3 14.4 C 4.8 km/h
10 24-05-2022 02:45:00 14.3 C 10.69 g/m*3 14.3 C 3.2 km/h
11 24-05-2022 02:50:00 14.3 C 10.69 g/m*3 14.3 C 4.8 km/h
12 24-05-2022 02:55:00 14.2 C 10.62 g/m*3 14.2 C 1.6 km/h
13 24-05-2022 03:00:00 14.2 C 10.75 g/m*3 14.2 C 4.8 km/h
14 24-05-2022 03:05:00 14.3 C 10.81 g/m*3 14.3 C 1.6 km/h
15 24-05-2022 03:10:00 14.2 C 10.75 g/m*3 14.2 C 3.2 km/h
16 24-05-2022 03:15:00 14.2 C 10.75 g/m*3 14.2 C 1.6 km/h
17 24-05-2022 03:20:00 14.3 C 10.81 g/m*3 14.3 C 6.4 km/h
18 24-05-2022 03:25:00 14.3 C 10.81 g/m*3 14.3 C 3.2 km/h
19 24-05-2022 03:30:00 14.4 C 10.88 g/m*3 14.4 C 0 km/h
20 24-05-2022 03:35:00 14.5 C 10.94 g/m*3 14.5 C 0 km/h
21 24-05-2022 03:40:00 14.6 C 11.01 g/m*3 14.6 C 1.6 km/h
22 24-05-2022 03:45:00 14.6 C 11.01 g/m*3 14.6 C 0 km/h
23 24-05-2022 03:50:00 14.7 C 11.08 g/m*3 14.7 C 0 km/h
24 24-05-2022 03:55:00 14.7 C 11.08 g/m*3 14.7 C 0 km/h
25 24-05-2022 04:00:00 14.7 C 11.08 g/m*3 14.7 C 0 km/h
Sensor: Nr:Datum:Temp:Abs-Feuchte:Windchill:Wind:
Aussen-T/F 26 24-05-2022 04:05:00 14.7 C 11.08 g/m*3 14.7 C 0 km/h
27 24-05-2022 04:10:00 14.7 C 11.08 g/m*3 14.7 C 0 km/h
28 24-05-2022 04:15:00 14.7 C 11.08 g/m*3 14.7 C 1.6 km/h
29 24-05-2022 04:20:00 14.7 C 11.08 g/m*3 14.7 C 0 km/h
30 24-05-2022 04:25:00 14.7 C 11.08 g/m*3 14.7 C 0 km/h
31 24-05-2022 04:30:00 14.7 C 11.08 g/m*3 14.7 C 0 km/h
32 24-05-2022 04:35:00 14.7 C 11.08 g/m*3 14.7 C 0 km/h
33 24-05-2022 04:40:00 14.7 C 11.08 g/m*3 14.7 C 0 km/h
34 24-05-2022 04:45:00 14.7 C 11.08 g/m*3 14.7 C 0 km/h
35 24-05-2022 04:50:00 14.7 C 11.08 g/m*3 14.7 C 1.6 km/h
36 24-05-2022 04:55:00 14.7 C 11.08 g/m*3 14.7 C 0 km/h
37 24-05-2022 05:00:00 14.7 C 11.08 g/m*3 14.7 C 0 km/h
38 24-05-2022 05:05:00 14.7 C 11.08 g/m*3 14.7 C 0 km/h
39 24-05-2022 05:10:00 14.7 C 10.95 g/m*3 14.7 C 0 km/h
40 24-05-2022 05:15:00 14.7 C 10.95 g/m*3 14.7 C 3.2 km/h
41 24-05-2022 05:20:00 14.7 C 10.95 g/m*3 14.7 C 1.6 km/h
42 24-05-2022 05:25:00 14.7 C 10.95 g/m*3 14.7 C 0 km/h
43 24-05-2022 05:30:00 14.8 C 11.02 g/m*3 14.8 C 0 km/h
44 24-05-2022 05:35:00 14.8 C 11.15 g/m*3 14.8 C 0 km/h
45 24-05-2022 05:40:00 14.8 C 11.15 g/m*3 14.8 C 0 km/h
46 24-05-2022 05:45:00 14.8 C 11.02 g/m*3 14.8 C 0 km/h
47 24-05-2022 05:50:00 14.8 C 11.15 g/m*3 14.8 C 0 km/h
48 24-05-2022 05:55:00 14.8 C 11.15 g/m*3 14.8 C 0 km/h
49 24-05-2022 06:00:00 14.8 C 11.15 g/m*3 14.8 C 1.6 km/h
50 24-05-2022 06:05:00 14.8 C 11.27 g/m*3 14.8 C 0 km/h
Sensor: Nr:Datum:Temp:Abs-Feuchte:Windchill:Wind:
Aussen-T/F 51 24-05-2022 06:10:00 14.8 C 11.27 g/m*3 14.8 C 0 km/h
52 24-05-2022 06:15:00 14.8 C 11.4 g/m*3 14.8 C 0 km/h
53 24-05-2022 06:20:00 14.7 C 11.33 g/m*3 14.7 C 1.6 km/h
54 24-05-2022 06:25:00 14.7 C 11.33 g/m*3 14.7 C 1.6 km/h
55 24-05-2022 06:30:00 14.7 C 11.33 g/m*3 14.7 C 0 km/h
56 24-05-2022 06:35:00 14.6 C 11.26 g/m*3 14.6 C 0 km/h
57 24-05-2022 06:40:00 14.6 C 11.39 g/m*3 14.6 C 0 km/h
58 24-05-2022 06:45:00 14.6 C 11.39 g/m*3 14.6 C 0 km/h
59 24-05-2022 06:50:00 14.6 C 11.39 g/m*3 14.6 C 0 km/h
60 24-05-2022 06:55:00 14.5 C 11.44 g/m*3 14.5 C 0 km/h
61 24-05-2022 07:00:00 14.5 C 11.44 g/m*3 14.5 C 0 km/h
62 24-05-2022 07:05:00 14.5 C 11.44 g/m*3 14.5 C 0 km/h
63 24-05-2022 07:10:00 14.4 C 11.37 g/m*3 14.4 C 3.2 km/h
64 24-05-2022 07:15:00 14.4 C 11.5 g/m*3 14.4 C 14.5 km/h
65 24-05-2022 07:20:00 14.3 C 11.43 g/m*3 14.3 C 16.1 km/h
66 24-05-2022 07:25:00 14.2 C 11.23 g/m*3 14.2 C 14.5 km/h
67 24-05-2022 07:30:00 13.9 C 11.03 g/m*3 13.9 C 12.9 km/h
68 24-05-2022 07:35:00 13.7 C 10.89 g/m*3 13.7 C 20.9 km/h
69 24-05-2022 07:40:00 13.5 C 10.76 g/m*3 13.5 C 17.7 km/h
70 24-05-2022 07:45:00 13.3 C 10.63 g/m*3 13.3 C 11.3 km/h
71 24-05-2022 07:50:00 13.2 C 10.56 g/m*3 13.2 C 6.4 km/h
72 24-05-2022 07:55:00 13.2 C 10.56 g/m*3 13.2 C 4.8 km/h
73 24-05-2022 08:00:00 13.1 C 10.61 g/m*3 13.1 C 4.8 km/h
74 24-05-2022 08:05:00 13.1 C 10.61 g/m*3 13.1 C 3.2 km/h
75 24-05-2022 08:10:00 13.1 C 10.61 g/m*3 13.1 C 0 km/h
Sensor: Nr:Datum:Temp:Abs-Feuchte:Windchill:Wind:
Aussen-T/F 76 24-05-2022 08:15:00 13.1 C 10.61 g/m*3 13.1 C 1.6 km/h
77 24-05-2022 08:20:00 13.2 C 10.79 g/m*3 13.2 C 1.6 km/h
78 24-05-2022 08:25:00 13.4 C 10.93 g/m*3 13.4 C 0 km/h
79 24-05-2022 08:30:00 13.6 C 11.06 g/m*3 13.6 C 0 km/h
80 24-05-2022 08:35:00 13.7 C 11.13 g/m*3 13.7 C 3.2 km/h
81 24-05-2022 08:40:00 13.7 C 11.13 g/m*3 13.7 C 4.8 km/h
82 24-05-2022 08:45:00 13.7 C 11.13 g/m*3 13.7 C 3.2 km/h
83 24-05-2022 08:50:00 13.7 C 11.13 g/m*3 13.7 C 3.2 km/h
84 24-05-2022 08:55:00 13.7 C 11.13 g/m*3 13.7 C 0 km/h
85 24-05-2022 09:00:00 13.8 C 11.2 g/m*3 13.8 C 4.8 km/h
86 24-05-2022 09:05:00 13.8 C 11.2 g/m*3 13.8 C 6.4 km/h
87 24-05-2022 09:10:00 13.8 C 11.2 g/m*3 13.8 C 6.4 km/h
88 24-05-2022 09:15:00 13.6 C 11.06 g/m*3 13.6 C 12.9 km/h
89 24-05-2022 09:20:00 13.6 C 11.06 g/m*3 13.6 C 8.1 km/h
90 24-05-2022 09:25:00 13.5 C 10.99 g/m*3 13.5 C 4.8 km/h
91 24-05-2022 09:30:00 13.6 C 11.06 g/m*3 13.6 C 6.4 km/h
92 24-05-2022 09:35:00 13.7 C 11.13 g/m*3 13.7 C 11.3 km/h
93 24-05-2022 09:40:00 13.9 C 11.27 g/m*3 13.9 C 16.1 km/h
94 24-05-2022 09:45:00 13.9 C 11.27 g/m*3 13.9 C 11.3 km/h
95 24-05-2022 09:50:00 14.1 C 11.41 g/m*3 14.1 C 8.1 km/h
96 24-05-2022 09:55:00 14.3 C 11.43 g/m*3 14.3 C 11.3 km/h
97 24-05-2022 10:00:00 14.3 C 11.43 g/m*3 14.3 C 9.7 km/h
98 24-05-2022 10:05:00 14.2 C 11.23 g/m*3 14.2 C 9.7 km/h
99 24-05-2022 10:10:00 14.2 C 11.23 g/m*3 14.2 C 8.1 km/h
100 24-05-2022 10:15:00 14.1 C 11.17 g/m*3 14.1 C 16.1 km/h
Sensor: Nr:Datum:Temp:Abs-Feuchte:Windchill:Wind:
Aussen-T/F 101 24-05-2022 10:20:00 14.1 C 11.17 g/m*3 14.1 C 12.9 km/h
102 24-05-2022 10:25:00 14.1 C 11.17 g/m*3 14.1 C 8.1 km/h
103 24-05-2022 10:30:00 14.2 C 11.36 g/m*3 14.2 C 9.7 km/h
104 24-05-2022 10:35:00 14.2 C 11.23 g/m*3 14.2 C 14.5 km/h
105 24-05-2022 10:40:00 14.3 C 11.3 g/m*3 14.3 C 11.3 km/h
106 24-05-2022 10:45:00 14.5 C 11.44 g/m*3 14.5 C 11.3 km/h
107 24-05-2022 10:50:00 14.6 C 11.26 g/m*3 14.6 C 9.7 km/h
108 24-05-2022 10:55:00 14.6 C 11.01 g/m*3 14.6 C 19.3 km/h
109 24-05-2022 11:00:00 14.5 C 10.82 g/m*3 14.5 C 11.3 km/h
110 24-05-2022 11:05:00 14.6 C 11.01 g/m*3 14.6 C 11.3 km/h
111 24-05-2022 11:10:00 14.7 C 11.08 g/m*3 14.7 C 9.7 km/h
112 24-05-2022 11:15:00 14.9 C 11.09 g/m*3 14.9 C 4.8 km/h
113 24-05-2022 11:20:00 15.2 C 11.16 g/m*3 15.2 C 14.5 km/h
114 24-05-2022 11:25:00 15.2 C 10.77 g/m*3 15.2 C 11.3 km/h
115 24-05-2022 11:30:00 15.4 C 11.17 g/m*3 15.4 C 14.5 km/h
116 24-05-2022 11:35:00 15.6 C 10.91 g/m*3 15.6 C 12.9 km/h
117 24-05-2022 11:40:00 15.8 C 11.04 g/m*3 15.8 C 14.5 km/h
118 24-05-2022 11:45:00 15.9 C 10.83 g/m*3 15.9 C 19.3 km/h
119 24-05-2022 11:50:00 16.1 C 10.97 g/m*3 16.1 C 11.3 km/h
120 24-05-2022 11:55:00 16.2 C 11.03 g/m*3 16.2 C 9.7 km/h
121 24-05-2022 12:00:00 16.3 C 10.68 g/m*3 16.3 C 14.5 km/h
122 24-05-2022 12:05:00 16.3 C 10.82 g/m*3 16.3 C 24.1 km/h
123 24-05-2022 12:10:00 16.2 C 10.34 g/m*3 16.2 C 17.7 km/h
124 24-05-2022 12:15:00 16.3 C 10.82 g/m*3 16.3 C 17.7 km/h
125 24-05-2022 12:20:00 16.5 C 10.81 g/m*3 16.5 C 14.5 km/h
Sensor: Nr:Datum:Temp:Abs-Feuchte:Windchill:Wind:
Aussen-T/F 126 24-05-2022 12:25:00 16.8 C 10.87 g/m*3 16.8 C 17.7 km/h
127 24-05-2022 12:30:00 17.1 C 10.63 g/m*3 17.1 C 20.9 km/h
128 24-05-2022 12:35:00 16.9 C 10.5 g/m*3 16.9 C 19.3 km/h
129 24-05-2022 12:40:00 16.5 C 9.97 g/m*3 16.5 C 12.9 km/h
130 24-05-2022 12:45:00 16.2 C 10.07 g/m*3 16.2 C 11.3 km/h
131 24-05-2022 12:50:00 16 C 10.22 g/m*3 16 C 14.5 km/h
132 24-05-2022 12:55:00 16.1 C 10.28 g/m*3 16.1 C 14.5 km/h
133 24-05-2022 13:00:00 16.5 C 10.53 g/m*3 16.5 C 14.5 km/h
134 24-05-2022 13:05:00 16.8 C 10.58 g/m*3 16.8 C 12.9 km/h
135 24-05-2022 13:10:00 17.2 C 10.84 g/m*3 17.2 C 14.5 km/h
136 24-05-2022 13:15:00 17.3 C 10.75 g/m*3 17.3 C 12.9 km/h
137 24-05-2022 13:20:00 17.4 C 10.67 g/m*3 17.4 C 19.3 km/h
138 24-05-2022 13:25:00 17.5 C 10.59 g/m*3 17.5 C 14.5 km/h
139 24-05-2022 13:30:00 17.6 C 10.5 g/m*3 17.6 C 20.9 km/h
140 24-05-2022 13:35:00 17.8 C 10.32 g/m*3 17.8 C 12.9 km/h
141 24-05-2022 13:40:00 17.9 C 10.23 g/m*3 17.9 C 9.7 km/h
142 24-05-2022 13:45:00 17.6 C 9.6 g/m*3 17.6 C 12.9 km/h
143 24-05-2022 13:50:00 17.3 C 10.16 g/m*3 17.3 C 6.4 km/h
144 24-05-2022 13:55:00 17.1 C 10.34 g/m*3 17.1 C 4.8 km/h
145 24-05-2022 14:00:00 17 C 10.27 g/m*3 17 C 3.2 km/h
146 24-05-2022 14:05:00 16.9 C 10.79 g/m*3 16.9 C 3.2 km/h
147 24-05-2022 14:10:00 17 C 10.56 g/m*3 17 C 8.1 km/h
148 24-05-2022 14:15:00 17.4 C 10.97 g/m*3 17.4 C 6.4 km/h
149 24-05-2022 14:20:00 17.8 C 10.78 g/m*3 17.8 C 12.9 km/h
150 24-05-2022 14:25:00 18 C 10.6 g/m*3 18 C 16.1 km/h
Sensor: Nr:Datum:Temp:Abs-Feuchte:Windchill:Wind:
Aussen-T/F 151 24-05-2022 14:30:00 17.9 C 10.54 g/m*3 17.9 C 12.9 km/h
152 24-05-2022 14:35:00 18 C 10.29 g/m*3 18 C 14.5 km/h
153 24-05-2022 14:40:00 18.3 C 10.63 g/m*3 18.3 C 9.7 km/h
154 24-05-2022 14:45:00 18.8 C 9.82 g/m*3 18.8 C 22.5 km/h
155 24-05-2022 14:50:00 19.1 C 9.84 g/m*3 19.1 C 19.3 km/h
156 24-05-2022 14:55:00 19.2 C 9.89 g/m*3 19.2 C 17.7 km/h
157 24-05-2022 15:00:00 19.2 C 10.22 g/m*3 19.2 C 12.9 km/h
158 24-05-2022 15:05:00 19.2 C 9.89 g/m*3 19.2 C 16.1 km/h
159 24-05-2022 15:10:00 19.1 C 10.49 g/m*3 19.1 C 20.9 km/h
160 24-05-2022 15:15:00 19.3 C 10.45 g/m*3 19.3 C 19.3 km/h
161 24-05-2022 15:20:00 19.6 C 10.97 g/m*3 19.6 C 22.5 km/h
162 24-05-2022 15:25:00 19.8 C 10.25 g/m*3 19.8 C 16.1 km/h
163 24-05-2022 15:30:00 19.7 C 10.36 g/m*3 19.7 C 16.1 km/h
164 24-05-2022 15:35:00 19.7 C 10.36 g/m*3 19.7 C 14.5 km/h
165 24-05-2022 15:40:00 19.8 C 10.08 g/m*3 19.8 C 17.7 km/h
166 24-05-2022 15:45:00 19.8 C 10.08 g/m*3 19.8 C 16.1 km/h
167 24-05-2022 15:50:00 19.8 C 10.25 g/m*3 19.8 C 9.7 km/h
168 24-05-2022 15:55:00 19.4 C 9.84 g/m*3 19.4 C 19.3 km/h
169 24-05-2022 16:00:00 19.1 C 10.33 g/m*3 19.1 C 8.1 km/h
170 24-05-2022 16:05:00 18.8 C 10.15 g/m*3 18.8 C 12.9 km/h
171 24-05-2022 16:10:00 18.2 C 9.79 g/m*3 18.2 C 19.3 km/h
172 24-05-2022 16:15:00 17.7 C 10.11 g/m*3 17.7 C 14.5 km/h
173 24-05-2022 16:20:00 17.5 C 9.84 g/m*3 17.5 C 11.3 km/h
174 24-05-2022 16:25:00 17.7 C 9.81 g/m*3 17.7 C 19.3 km/h
175 24-05-2022 16:30:00 18 C 9.83 g/m*3 18 C 12.9 km/h
Sensor: Nr:Datum:Temp:Abs-Feuchte:Windchill:Wind:
Aussen-T/F 176 24-05-2022 16:35:00 18.3 C 10.32 g/m*3 18.3 C 11.3 km/h
177 24-05-2022 16:40:00 18.4 C 9.59 g/m*3 18.4 C 12.9 km/h
178 24-05-2022 16:45:00 18.2 C 9.33 g/m*3 18.2 C 33.8 km/h
179 24-05-2022 16:50:00 18 C 9.83 g/m*3 18 C 16.1 km/h
180 24-05-2022 16:55:00 17.8 C 9.87 g/m*3 17.8 C 12.9 km/h
181 24-05-2022 17:00:00 17.8 C 9.56 g/m*3 17.8 C 9.7 km/h
182 24-05-2022 17:05:00 17.9 C 9.47 g/m*3 17.9 C 11.3 km/h
183 24-05-2022 17:10:00 17.8 C 9.41 g/m*3 17.8 C 12.9 km/h
184 24-05-2022 17:15:00 17.6 C 9.45 g/m*3 17.6 C 14.5 km/h
185 24-05-2022 17:20:00 17.4 C 9.04 g/m*3 17.4 C 14.5 km/h
186 24-05-2022 17:25:00 17.2 C 8.93 g/m*3 17.2 C 12.9 km/h
187 24-05-2022 17:30:00 17.1 C 9.32 g/m*3 17.1 C 9.7 km/h
188 24-05-2022 17:35:00 17.1 C 9.32 g/m*3 17.1 C 6.4 km/h
189 24-05-2022 17:40:00 17.1 C 9.75 g/m*3 17.1 C 3.2 km/h
190 24-05-2022 17:45:00 17.2 C 9.67 g/m*3 17.2 C 1.6 km/h
191 24-05-2022 17:50:00 17.4 C 9.63 g/m*3 17.4 C 12.9 km/h
192 24-05-2022 17:55:00 17.6 C 9.6 g/m*3 17.6 C 8.1 km/h
193 24-05-2022 18:00:00 17.7 C 9.96 g/m*3 17.7 C 6.4 km/h
194 24-05-2022 18:05:00 17.7 C 9.66 g/m*3 17.7 C 6.4 km/h
195 24-05-2022 18:10:00 17.7 C 9.81 g/m*3 17.7 C 8.1 km/h
196 24-05-2022 18:15:00 17.7 C 9.66 g/m*3 17.7 C 9.7 km/h
197 24-05-2022 18:20:00 17.8 C 10.02 g/m*3 17.8 C 6.4 km/h
198 24-05-2022 18:25:00 17.8 C 10.17 g/m*3 17.8 C 6.4 km/h
199 24-05-2022 18:30:00 17.8 C 9.87 g/m*3 17.8 C 6.4 km/h
200 24-05-2022 18:35:00 17.8 C 10.17 g/m*3 17.8 C 4.8 km/h
Sensor: Nr:Datum:Temp:Abs-Feuchte:Windchill:Wind:
Aussen-T/F 201 24-05-2022 18:40:00 17.8 C 10.02 g/m*3 17.8 C 4.8 km/h
202 24-05-2022 18:45:00 17.9 C 10.23 g/m*3 17.9 C 6.4 km/h
203 24-05-2022 18:50:00 17.9 C 9.92 g/m*3 17.9 C 6.4 km/h
204 24-05-2022 18:55:00 17.8 C 9.87 g/m*3 17.8 C 3.2 km/h
205 24-05-2022 19:00:00 17.7 C 10.26 g/m*3 17.7 C 4.8 km/h
206 24-05-2022 19:05:00 17.6 C 10.2 g/m*3 17.6 C 4.8 km/h
207 24-05-2022 19:10:00 17.4 C 9.93 g/m*3 17.4 C 11.3 km/h
208 24-05-2022 19:15:00 17.2 C 10.25 g/m*3 17.2 C 8.1 km/h
209 24-05-2022 19:20:00 17.1 C 9.9 g/m*3 17.1 C 4.8 km/h
210 24-05-2022 19:25:00 16.8 C 9.87 g/m*3 16.8 C 14.5 km/h
211 24-05-2022 19:30:00 16.4 C 9.77 g/m*3 16.4 C 17.7 km/h
212 24-05-2022 19:35:00 16.2 C 9.52 g/m*3 16.2 C 4.8 km/h
213 24-05-2022 19:40:00 15.9 C 9.48 g/m*3 15.9 C 12.9 km/h
214 24-05-2022 19:45:00 15.8 C 9.69 g/m*3 15.8 C 8.1 km/h
215 24-05-2022 19:50:00 15.7 C 9.37 g/m*3 15.7 C 8.1 km/h
216 24-05-2022 19:55:00 15.7 C 9.5 g/m*3 15.7 C 8.1 km/h
217 24-05-2022 20:00:00 15.6 C 9.31 g/m*3 15.6 C 8.1 km/h
218 24-05-2022 20:05:00 15.4 C 9.46 g/m*3 15.4 C 6.4 km/h
219 24-05-2022 20:10:00 15.4 C 9.46 g/m*3 15.4 C 3.2 km/h
220 24-05-2022 20:15:00 15.3 C 9.53 g/m*3 15.3 C 4.8 km/h
221 24-05-2022 20:20:00 15.3 C 9.79 g/m*3 15.3 C 3.2 km/h
222 24-05-2022 20:25:00 15.2 C 9.61 g/m*3 15.2 C 3.2 km/h
223 24-05-2022 20:30:00 15.1 C 9.55 g/m*3 15.1 C 3.2 km/h
224 24-05-2022 20:35:00 14.9 C 9.56 g/m*3 14.9 C 8.1 km/h
225 24-05-2022 20:40:00 14.8 C 9.63 g/m*3 14.8 C 4.8 km/h

Legende:
   Min
   Max


Maximal/Minimal-Werte vom 24.05.2022 - 24.05.2022

Sensor Min Max Avg
Temp
(Aussen-T/F)
13.1 °C
24-05-2022  08:00:00
19.8 °C
24-05-2022  15:25:00
15.82 °C
Abs-Feuchte
(Aussen-T/F)
8.93 g/m*3
24-05-2022  17:25:00
11.5 g/m*3
24-05-2022  07:15:00
10.53 g/m*3
Windchill
(Aussen-T/F)
13.1 C
24-05-2022  08:00:00
19.8 C
24-05-2022  15:25:00
15.75 C

Die Daten stammen von einer Davis Vantage Pro 2 Wetter-Station und werden unter Linux mit der Software wview2wettercgi und aufbereitet. Alle Angaben erfolgen ohne Gewähr für ihre Vollständigkeit oder Richtigkeit.
Kontakt: Rainer Krienke krienke@uni-koblenz.de . Meine Webseiten an der Uni Koblenz oder privat.
Version: $Revision: 0.78 $